createdAt,value
2017-10-13T00:00:40.810Z,42.93
2017-10-13T00:01:49.501Z,42.63
2017-10-13T00:02:59.540Z,43.02
2017-10-13T00:04:08.237Z,43.02
2017-10-13T00:05:17.272Z,42.63
2017-10-13T00:06:26.980Z,43.21
2017-10-13T00:07:36.011Z,43.31
2017-10-13T00:08:45.706Z,43.02
2017-10-13T00:09:55.402Z,42.93
2017-10-13T00:11:04.430Z,42.93
2017-10-13T00:12:13.789Z,43.12
2017-10-13T00:13:22.815Z,43.02
2017-10-13T00:14:31.510Z,42.93
2017-10-13T00:15:40.879Z,42.83
2017-10-13T00:16:49.910Z,42.93
2017-10-13T00:17:58.936Z,42.93
2017-10-13T00:19:08.301Z,43.02
2017-10-13T00:20:17.326Z,43.12
2017-10-13T00:21:26.026Z,43.02
2017-10-13T00:22:35.065Z,43.02
2017-10-13T00:23:44.100Z,43.02
2017-10-13T00:24:53.131Z,43.12
2017-10-13T00:26:01.832Z,43.21
2017-10-13T00:27:11.206Z,42.83
2017-10-13T00:28:20.236Z,42.93
2017-10-13T00:29:29.271Z,43.12
2017-10-13T00:30:38.635Z,43.12
2017-10-13T00:31:47.669Z,43.21
2017-10-13T00:32:57.362Z,43.21
2017-10-13T00:34:07.065Z,43.02
2017-10-13T00:35:16.096Z,42.93
2017-10-13T00:36:24.794Z,43.12
2017-10-13T00:37:33.490Z,43.02
2017-10-13T00:38:42.521Z,43.02
2017-10-13T00:39:51.218Z,43.31
2017-10-13T00:41:00.579Z,43.02
2017-10-13T00:42:09.279Z,43.02
2017-10-13T00:43:17.968Z,43.21
2017-10-13T00:44:27.337Z,43.12
2017-10-13T00:45:36.694Z,43.12
2017-10-13T00:46:46.089Z,43.02
2017-10-13T00:47:55.117Z,43.1
2017-10-13T00:49:03.815Z,42.93
2017-10-13T00:50:13.508Z,42.93
2017-10-13T00:51:22.209Z,42.93
2017-10-13T00:52:31.248Z,43.21
2017-10-13T00:53:40.603Z,43.29
2017-10-13T00:54:49.301Z,43.02
2017-10-13T00:55:58.996Z,42.93
2017-10-13T00:57:08.030Z,43.21
2017-10-13T00:58:16.726Z,43.12
2017-10-13T00:59:26.088Z,43.31
2017-10-13T01:00:34.792Z,43.31
2017-10-13T01:01:43.482Z,43.02
2017-10-13T01:02:52.185Z,43.1
2017-10-13T01:04:00.878Z,42.93
2017-10-13T01:05:09.907Z,43.02
2017-10-13T01:06:18.601Z,43.31
2017-10-13T01:07:27.636Z,43.02
2017-10-13T01:08:36.999Z,43.29
2017-10-13T01:09:46.023Z,43.19
2017-10-13T01:10:55.728Z,43.31
2017-10-13T01:12:05.081Z,43
2017-10-13T01:13:14.443Z,42.8
2017-10-13T01:14:23.143Z,43.12
2017-10-13T01:15:32.512Z,43.29
2017-10-13T01:16:41.883Z,43
2017-10-13T01:17:51.264Z,43.19
2017-10-13T01:19:00.295Z,43.02
2017-10-13T01:20:09.323Z,43.21
2017-10-13T01:21:18.687Z,43.12
2017-10-13T01:22:27.712Z,43.41
2017-10-13T01:23:36.410Z,43
2017-10-13T01:24:45.444Z,43.12
2017-10-13T01:25:54.806Z,43.19
2017-10-13T01:27:03.503Z,43.19
2017-10-13T01:28:12.205Z,43.21
2017-10-13T01:29:21.232Z,43.19
2017-10-13T01:30:29.932Z,43.19
2017-10-13T01:31:39.963Z,43.38
2017-10-13T01:32:48.663Z,43.12
2017-10-13T01:33:57.364Z,43.29
2017-10-13T01:35:06.403Z,43.19
2017-10-13T01:36:15.427Z,43.1
2017-10-13T01:37:24.798Z,43.29
2017-10-13T01:38:33.810Z,43.38
2017-10-13T01:39:42.842Z,43.29
2017-10-13T01:40:52.207Z,43
2017-10-13T01:42:01.227Z,43.19
2017-10-13T01:43:10.259Z,43.19
2017-10-13T01:44:19.286Z,43.38
2017-10-13T01:45:28.319Z,43.19
2017-10-13T01:46:37.364Z,43.38
2017-10-13T01:47:46.733Z,43.29
2017-10-13T01:48:55.769Z,43.38
2017-10-13T01:50:05.135Z,43.12
2017-10-13T01:51:13.832Z,43.1
2017-10-13T01:52:23.206Z,43.38
2017-10-13T01:53:31.904Z,43.29
2017-10-13T01:54:41.266Z,43.48
2017-10-13T01:55:50.296Z,43.38
2017-10-13T01:56:59.328Z,43.19
2017-10-13T01:58:08.356Z,43.38
2017-10-13T01:59:18.052Z,43.38
2017-10-13T02:00:26.743Z,43.19
2017-10-13T02:01:35.771Z,43.38
2017-10-13T02:02:44.801Z,43.29
2017-10-13T02:03:54.167Z,43.38
2017-10-13T02:05:03.858Z,43.19
2017-10-13T02:06:13.219Z,43.29
2017-10-13T02:07:21.916Z,43.29
2017-10-13T02:08:31.288Z,43.48
2017-10-13T02:09:40.319Z,43.29
2017-10-13T02:10:49.350Z,43.48
2017-10-13T02:11:58.384Z,43.38
2017-10-13T02:13:07.081Z,43.48
2017-10-13T02:14:16.456Z,43.29
2017-10-13T02:15:25.479Z,43.38
2017-10-13T02:16:34.840Z,43.38
2017-10-13T02:17:44.204Z,43.19
2017-10-13T02:18:53.560Z,43.29
2017-10-13T02:20:03.255Z,43.38
2017-10-13T02:21:12.956Z,43.19
2017-10-13T02:22:21.993Z,43.38
2017-10-13T02:23:31.352Z,43.38
2017-10-13T02:24:41.042Z,43.38
2017-10-13T02:25:49.735Z,43.29
2017-10-13T02:26:59.094Z,43.38
2017-10-13T02:28:07.792Z,43.38
2017-10-13T02:29:16.491Z,43.1
2017-10-13T02:30:26.532Z,43.19
2017-10-13T02:31:35.565Z,43.19
2017-10-13T02:32:44.933Z,43.38
2017-10-13T02:33:54.316Z,43.29
2017-10-13T02:35:03.003Z,43.48
2017-10-13T02:36:12.722Z,43.29
2017-10-13T02:37:21.750Z,43.38
2017-10-13T02:38:31.448Z,43.38
2017-10-13T02:39:40.145Z,43.29
2017-10-13T02:40:49.176Z,43.38
2017-10-13T02:41:58.536Z,43.58
2017-10-13T02:43:07.568Z,43.48
2017-10-13T02:44:16.268Z,43.1
2017-10-13T02:45:25.307Z,43.48
2017-10-13T02:46:35.023Z,43.48
2017-10-13T02:47:44.051Z,43.38
2017-10-13T02:48:53.080Z,43.19
2017-10-13T02:50:02.777Z,43.48
2017-10-13T02:51:11.475Z,43.38
2017-10-13T02:52:21.172Z,43.48
2017-10-13T02:53:30.872Z,43.48
2017-10-13T02:54:39.569Z,43.48
2017-10-13T02:55:48.266Z,43.1
2017-10-13T02:56:57.650Z,43.38
2017-10-13T02:58:06.348Z,43.38
2017-10-13T02:59:15.377Z,43.38
2017-10-13T03:00:24.403Z,43.48
2017-10-13T03:01:33.102Z,43.48
2017-10-13T03:02:42.134Z,43.48
2017-10-13T03:03:51.501Z,43.48
2017-10-13T03:05:00.529Z,43.48
2017-10-13T03:06:09.562Z,43.48
2017-10-13T03:07:18.259Z,43.58
2017-10-13T03:08:27.947Z,43.48
2017-10-13T03:09:36.648Z,43.48
2017-10-13T03:10:45.683Z,43.58
2017-10-13T03:11:54.383Z,43.48
2017-10-13T03:13:04.090Z,43.48
2017-10-13T03:14:13.814Z,43.38
2017-10-13T03:15:22.513Z,43.38
2017-10-13T03:16:31.544Z,43.48
2017-10-13T03:17:40.578Z,43.48
2017-10-13T03:18:49.605Z,43.48
2017-10-13T03:19:58.303Z,43.29
2017-10-13T03:21:07.332Z,43.48
2017-10-13T03:22:16.368Z,43.38
2017-10-13T03:23:25.392Z,43.38
2017-10-13T03:24:34.750Z,43.38
2017-10-13T03:25:43.778Z,43.38
2017-10-13T03:26:53.484Z,43.48
2017-10-13T03:28:02.563Z,43.38
2017-10-13T03:29:11.596Z,43.48
2017-10-13T03:30:20.295Z,43.48
2017-10-13T03:31:29.325Z,43.67
2017-10-13T03:32:38.355Z,43.38
2017-10-13T03:33:47.723Z,43.38
2017-10-13T03:34:56.417Z,43.29
2017-10-13T03:36:05.438Z,43.38
2017-10-13T03:37:14.469Z,43.38
2017-10-13T03:38:23.494Z,43.29
2017-10-13T03:39:32.856Z,43.38
2017-10-13T03:40:42.224Z,43.38
2017-10-13T03:41:50.925Z,43.38
2017-10-13T03:42:59.954Z,43.29
2017-10-13T03:44:08.978Z,43.48
2017-10-13T03:45:19.003Z,43.1
2017-10-13T03:46:28.036Z,43.19
2017-10-13T03:47:37.065Z,43.58
2017-10-13T03:48:45.763Z,43.29
2017-10-13T03:49:54.793Z,43.1
2017-10-13T03:51:03.821Z,43.67
2017-10-13T03:52:12.848Z,43.48
2017-10-13T03:53:21.872Z,43.48
2017-10-13T03:54:30.898Z,43.48
2017-10-13T03:55:39.929Z,43.1
2017-10-13T03:56:48.621Z,43.38
2017-10-13T03:57:57.988Z,43.38
2017-10-13T03:59:07.684Z,43.67
2017-10-13T04:00:17.044Z,43.19
2017-10-13T04:01:26.397Z,43.65
2017-10-13T04:02:35.757Z,43.48
2017-10-13T04:03:44.458Z,43.48
2017-10-13T04:04:53.824Z,43.48
2017-10-13T04:06:02.856Z,43.96
2017-10-13T04:07:11.552Z,43.48
2017-10-13T04:08:21.243Z,43.58
2017-10-13T04:09:30.275Z,44.06
2017-10-13T04:10:38.970Z,43.58
2017-10-13T04:11:48.336Z,43.96
2017-10-13T04:12:57.368Z,43.65
2017-10-13T04:14:06.067Z,43.58
2017-10-13T04:15:14.766Z,43.48
2017-10-13T04:16:24.468Z,43.58
2017-10-13T04:17:33.165Z,43.67
2017-10-13T04:18:41.864Z,43.48
2017-10-13T04:19:51.238Z,43.67
2017-10-13T04:21:00.264Z,43.46
2017-10-13T04:22:09.625Z,43.48
2017-10-13T04:23:18.657Z,43.87
2017-10-13T04:24:28.348Z,43.58
2017-10-13T04:25:37.709Z,44.06
2017-10-13T04:26:46.740Z,43.85
2017-10-13T04:27:55.440Z,43.65
2017-10-13T04:29:04.472Z,43.87
2017-10-13T04:30:13.173Z,43.58
2017-10-13T04:31:22.533Z,43.87
2017-10-13T04:32:31.891Z,43.87
2017-10-13T04:33:41.247Z,43.67
2017-10-13T04:34:50.608Z,43.65
2017-10-13T04:35:59.974Z,43.58
2017-10-13T04:37:08.676Z,43.87
2017-10-13T04:38:18.031Z,43.58
2017-10-13T04:39:27.062Z,43.48
2017-10-13T04:40:36.423Z,43.94
2017-10-13T04:41:45.451Z,43.96
2017-10-13T04:42:54.148Z,43.48
2017-10-13T04:44:03.175Z,43.48
2017-10-13T04:45:12.212Z,43.29
2017-10-13T04:46:21.571Z,43.58
2017-10-13T04:47:30.603Z,43.48
2017-10-13T04:48:39.638Z,43.29
2017-10-13T04:49:48.994Z,43.48
2017-10-13T04:50:58.693Z,43.19
2017-10-13T04:52:08.061Z,43.38
2017-10-13T04:53:16.751Z,43.29
2017-10-13T04:54:26.112Z,43.29
2017-10-13T04:55:35.475Z,43.38
2017-10-13T04:56:44.173Z,43.29
2017-10-13T04:57:53.529Z,43.29
2017-10-13T04:59:02.894Z,43.1
2017-10-13T05:00:11.918Z,43.1
2017-10-13T05:01:20.946Z,43.38
2017-10-13T05:02:29.645Z,43.38
2017-10-13T05:03:39.006Z,43.48
2017-10-13T05:04:48.375Z,43.58
2017-10-13T05:05:57.072Z,43.48
2017-10-13T05:07:06.433Z,43.58
2017-10-13T05:08:15.796Z,43.38
2017-10-13T05:09:24.825Z,43.48
2017-10-13T05:10:34.187Z,43.38
2017-10-13T05:11:43.549Z,43.48
2017-10-13T05:12:52.582Z,43.38
2017-10-13T05:14:01.280Z,43.38
2017-10-13T05:15:10.650Z,43.58
2017-10-13T05:16:19.347Z,43.58
2017-10-13T05:17:28.707Z,43.48
2017-10-13T05:18:38.396Z,43.48
2017-10-13T05:19:48.419Z,43.48
2017-10-13T05:20:57.452Z,43.48
2017-10-13T05:22:07.157Z,43.29
2017-10-13T05:23:15.852Z,43.29
2017-10-13T05:24:24.883Z,43.38
2017-10-13T05:25:34.246Z,43.38
2017-10-13T05:26:43.617Z,43.38
2017-10-13T05:27:53.321Z,43.19
2017-10-13T05:29:02.347Z,43.38
2017-10-13T05:30:11.048Z,43.38
2017-10-13T05:31:20.083Z,43.38
2017-10-13T05:32:29.445Z,43.38
2017-10-13T05:33:39.138Z,43.38
2017-10-13T05:34:47.832Z,43.29
2017-10-13T05:35:56.864Z,43.48
2017-10-13T05:37:05.565Z,43.19
2017-10-13T05:38:15.263Z,43.48
2017-10-13T05:39:24.963Z,43.38
2017-10-13T05:40:34.001Z,43.29
2017-10-13T05:41:43.036Z,43.67
2017-10-13T05:42:52.062Z,43.38
2017-10-13T05:44:01.760Z,43.19
2017-10-13T05:45:10.464Z,43.29
2017-10-13T05:46:19.493Z,43.38
2017-10-13T05:47:28.541Z,43.38
2017-10-13T05:48:37.575Z,43.38
2017-10-13T05:49:46.606Z,43.38
2017-10-13T05:50:55.638Z,43.38
2017-10-13T05:52:04.663Z,43.38
2017-10-13T05:53:13.691Z,43.38
2017-10-13T05:54:22.726Z,43.29
2017-10-13T05:55:32.430Z,43.38
2017-10-13T05:56:41.790Z,43.38
2017-10-13T05:57:50.822Z,43.19
2017-10-13T05:58:59.850Z,43.38
2017-10-13T06:00:09.211Z,43.38
2017-10-13T06:01:18.243Z,43.48
2017-10-13T06:02:27.273Z,43.19
2017-10-13T06:03:36.300Z,43.31
2017-10-13T06:04:45.681Z,43.29
2017-10-13T06:05:55.023Z,43.19
2017-10-13T06:07:04.386Z,43.29
2017-10-13T06:08:13.083Z,43.29
2017-10-13T06:09:22.112Z,43.29
2017-10-13T06:10:31.138Z,43.48
2017-10-13T06:11:39.837Z,43.21
2017-10-13T06:12:48.873Z,43.1
2017-10-13T06:13:58.242Z,43.02
2017-10-13T06:15:07.610Z,43.02
2017-10-13T06:16:16.656Z,43
2017-10-13T06:17:26.358Z,43.19
2017-10-13T06:18:36.053Z,43.02
2017-10-13T06:19:45.418Z,43.19
2017-10-13T06:20:54.442Z,43.31
2017-10-13T06:22:03.800Z,43.31
2017-10-13T06:23:12.832Z,42.93
2017-10-13T06:24:22.527Z,43.31
2017-10-13T06:25:31.556Z,42.93
2017-10-13T06:26:40.913Z,43.31
2017-10-13T06:27:49.611Z,43.21
2017-10-13T06:28:58.640Z,43.21
2017-10-13T06:30:07.666Z,43.21
2017-10-13T06:31:17.035Z,43.12
2017-10-13T06:32:25.730Z,43.12
2017-10-13T06:33:34.760Z,43.02
2017-10-13T06:34:43.800Z,42.93
2017-10-13T06:35:52.833Z,42.93
2017-10-13T06:37:01.860Z,43.12
2017-10-13T06:38:10.889Z,43.02
2017-10-13T06:39:20.919Z,43.02
2017-10-13T06:40:29.951Z,42.83
2017-10-13T06:41:38.649Z,43.12
2017-10-13T06:42:47.689Z,42.93
2017-10-13T06:43:56.718Z,43.12
2017-10-13T06:45:05.751Z,43.12
2017-10-13T06:46:15.454Z,42.93
2017-10-13T06:47:24.811Z,42.83
2017-10-13T06:48:33.841Z,43.21
2017-10-13T06:49:43.209Z,43.02
2017-10-13T06:50:52.241Z,42.93
2017-10-13T06:52:01.605Z,42.83
2017-10-13T06:53:11.636Z,42.93
2017-10-13T06:54:20.334Z,42.93
2017-10-13T06:55:29.361Z,43.02
2017-10-13T06:56:39.058Z,43.02
2017-10-13T06:57:48.420Z,42.93
2017-10-13T06:58:57.445Z,43.12
2017-10-13T07:00:06.476Z,43.02
2017-10-13T07:01:15.178Z,42.93
2017-10-13T07:02:23.875Z,42.73
2017-10-13T07:03:33.245Z,43.12
2017-10-13T07:04:42.277Z,42.93
2017-10-13T07:05:51.302Z,42.83
2017-10-13T07:07:00.005Z,42.93
2017-10-13T07:08:09.034Z,43.02
2017-10-13T07:09:18.397Z,43.02
2017-10-13T07:10:27.429Z,42.83
2017-10-13T07:11:36.466Z,43.12
2017-10-13T07:12:45.829Z,42.73
2017-10-13T07:13:55.522Z,43.12
2017-10-13T07:15:05.231Z,43.21
2017-10-13T07:16:14.590Z,42.73
2017-10-13T07:17:23.954Z,42.73
2017-10-13T07:18:32.656Z,43.12
2017-10-13T07:19:41.347Z,43.02
2017-10-13T07:20:50.383Z,42.63
2017-10-13T07:21:59.074Z,42.73
2017-10-13T07:23:08.103Z,43.12
2017-10-13T07:24:17.473Z,43.21
2017-10-13T07:25:26.509Z,42.73
2017-10-13T07:26:35.541Z,42.83
2017-10-13T07:27:44.905Z,42.73
2017-10-13T07:28:54.608Z,43.02
2017-10-13T07:30:03.314Z,42.83
2017-10-13T07:31:12.343Z,42.83
2017-10-13T07:32:21.042Z,42.54
2017-10-13T07:33:30.070Z,42.63
2017-10-13T07:34:38.764Z,42.83
2017-10-13T07:35:47.461Z,42.63
2017-10-13T07:36:56.501Z,43.31
2017-10-13T07:38:05.535Z,42.93
2017-10-13T07:39:14.582Z,42.73
2017-10-13T07:40:23.611Z,42.83
2017-10-13T07:41:32.647Z,43.12
2017-10-13T07:42:41.672Z,42.83
2017-10-13T07:43:50.372Z,42.73
2017-10-13T07:44:59.734Z,42.83
2017-10-13T07:46:08.437Z,42.83
2017-10-13T07:47:18.135Z,42.73
2017-10-13T07:48:27.170Z,43.02
2017-10-13T07:49:35.873Z,42.83
2017-10-13T07:50:45.240Z,42.93
2017-10-13T07:51:54.927Z,42.73
2017-10-13T07:53:03.622Z,42.83
2017-10-13T07:54:12.655Z,43.12
2017-10-13T07:55:22.015Z,42.93
2017-10-13T07:56:31.716Z,42.93
2017-10-13T07:57:41.078Z,42.83
2017-10-13T07:58:50.108Z,42.73
2017-10-13T07:59:59.462Z,42.83
2017-10-13T08:01:08.826Z,42.63
2017-10-13T08:02:17.859Z,42.63
2017-10-13T08:03:26.891Z,43.12
2017-10-13T08:04:35.590Z,43.02
2017-10-13T08:05:44.630Z,43.02
2017-10-13T08:06:53.996Z,42.54
2017-10-13T08:08:03.690Z,43.12
2017-10-13T08:09:12.724Z,42.54
2017-10-13T08:10:22.415Z,43.02
2017-10-13T08:11:31.446Z,43.12
2017-10-13T08:12:40.477Z,43.02
2017-10-13T08:13:49.840Z,42.83
2017-10-13T08:14:58.869Z,42.73
2017-10-13T08:16:07.912Z,43.12
2017-10-13T08:17:16.937Z,42.83
2017-10-13T08:18:25.964Z,43.21
2017-10-13T08:19:34.999Z,42.73
2017-10-13T08:20:43.693Z,42.83
2017-10-13T08:21:53.387Z,43.12
2017-10-13T08:23:02.087Z,42.83
2017-10-13T08:24:11.464Z,42.83
2017-10-13T08:25:20.828Z,42.73
2017-10-13T08:26:30.526Z,42.73
2017-10-13T08:27:40.224Z,42.73
2017-10-13T08:28:49.267Z,43.5
2017-10-13T08:29:59.299Z,42.63
2017-10-13T08:31:07.995Z,42.63
2017-10-13T08:32:16.692Z,42.63
2017-10-13T08:33:26.385Z,42.73
2017-10-13T08:34:35.090Z,42.83
2017-10-13T08:35:45.121Z,42.73
2017-10-13T08:36:53.818Z,42.56
2017-10-13T08:38:02.514Z,42.93
2017-10-13T08:39:12.209Z,42.73
2017-10-13T08:40:21.584Z,42.63
2017-10-13T08:41:30.978Z,42.93
2017-10-13T08:42:39.993Z,42.66
2017-10-13T08:43:49.016Z,42.73
2017-10-13T08:44:58.374Z,42.73
2017-10-13T08:46:07.754Z,42.83
2017-10-13T08:47:16.766Z,42.75
2017-10-13T08:48:25.797Z,42.36
2017-10-13T08:49:35.186Z,42.46
2017-10-13T08:50:43.881Z,42.83
2017-10-13T08:51:53.576Z,42.36
2017-10-13T08:53:03.272Z,42.36
2017-10-13T08:54:12.298Z,42.36
2017-10-13T08:55:21.993Z,42.85
2017-10-13T08:56:31.352Z,42.85
2017-10-13T08:57:40.716Z,42.56
2017-10-13T08:58:49.746Z,42.36
2017-10-13T08:59:59.435Z,42.63
2017-10-13T09:01:08.492Z,42.66
2017-10-13T09:02:18.188Z,42.85
2017-10-13T09:03:26.883Z,42.85
2017-10-13T09:04:36.247Z,42.94
2017-10-13T09:05:45.610Z,42.75
2017-10-13T09:06:54.641Z,42.46
2017-10-13T09:08:03.351Z,42.46
2017-10-13T09:09:12.721Z,42.85
2017-10-13T09:10:21.752Z,42.46
2017-10-13T09:11:30.783Z,42.75
2017-10-13T09:12:39.485Z,42.27
2017-10-13T09:13:48.529Z,42.94
2017-10-13T09:14:57.563Z,42.36
2017-10-13T09:16:06.597Z,42.18
2017-10-13T09:17:15.631Z,42.36
2017-10-13T09:18:24.663Z,43.04
2017-10-13T09:19:33.358Z,42.46
2017-10-13T09:20:42.055Z,42.66
2017-10-13T09:21:51.088Z,42.56
2017-10-13T09:23:00.449Z,42.56
2017-10-13T09:24:09.477Z,42.56
2017-10-13T09:25:18.506Z,42.56
2017-10-13T09:26:28.197Z,42.46
2017-10-13T09:27:37.229Z,42.56
2017-10-13T09:28:46.603Z,42.46
2017-10-13T09:29:55.972Z,42.36
2017-10-13T09:31:05.337Z,42.18
2017-10-13T09:32:14.693Z,42.18
2017-10-13T09:33:23.722Z,42.56
2017-10-13T09:34:32.753Z,42.46
2017-10-13T09:35:42.129Z,42.56
2017-10-13T09:36:51.158Z,42.56
2017-10-13T09:38:00.535Z,42.56
2017-10-13T09:39:09.553Z,42.46
2017-10-13T09:40:18.249Z,42.56
2017-10-13T09:41:26.948Z,42.36
2017-10-13T09:42:35.650Z,42.46
2017-10-13T09:43:44.674Z,42.56
2017-10-13T09:44:53.708Z,42.36
2017-10-13T09:46:02.515Z,42.36
2017-10-13T09:47:11.542Z,42.36
2017-10-13T09:48:20.904Z,42.56
2017-10-13T09:49:29.940Z,42.56
2017-10-13T09:50:39.653Z,42.56
2017-10-13T09:51:48.361Z,42.56
2017-10-13T09:52:58.058Z,42.27
2017-10-13T09:54:07.088Z,42.27
2017-10-13T09:55:16.114Z,42.56
2017-10-13T09:56:25.142Z,42.46
2017-10-13T09:57:33.839Z,42.36
2017-10-13T09:58:42.866Z,42.56
2017-10-13T09:59:52.568Z,42.56
2017-10-13T10:01:01.266Z,42.56
2017-10-13T10:02:10.633Z,42.56
2017-10-13T10:03:19.660Z,42.46
2017-10-13T10:04:28.686Z,42.56
2017-10-13T10:05:37.725Z,42.56
2017-10-13T10:06:46.761Z,42.56
2017-10-13T10:07:55.472Z,42.27
2017-10-13T10:09:04.169Z,42.56
2017-10-13T10:10:13.189Z,42.46
2017-10-13T10:11:21.889Z,42.36
2017-10-13T10:12:30.588Z,42.46
2017-10-13T10:13:39.618Z,42.36
2017-10-13T10:14:48.982Z,42.36
2017-10-13T10:15:58.673Z,42.56
2017-10-13T10:17:07.704Z,42.46
2017-10-13T10:18:17.396Z,42.56
2017-10-13T10:19:26.425Z,42.27
2017-10-13T10:20:35.126Z,42.56
2017-10-13T10:21:44.490Z,42.56
2017-10-13T10:22:53.517Z,42.56
2017-10-13T10:24:02.881Z,42.46
2017-10-13T10:25:12.247Z,42.46
2017-10-13T10:26:21.942Z,42.56
2017-10-13T10:27:31.309Z,42.46
2017-10-13T10:28:40.334Z,42.46
2017-10-13T10:29:49.696Z,42.46
2017-10-13T10:30:58.732Z,42.66
2017-10-13T10:32:07.766Z,42.56
2017-10-13T10:33:16.799Z,42.56
2017-10-13T10:34:25.828Z,42.46
2017-10-13T10:35:34.526Z,42.36
2017-10-13T10:36:43.229Z,42.27
2017-10-13T10:37:52.599Z,42.27
2017-10-13T10:39:01.627Z,42.27
2017-10-13T10:40:11.651Z,42.66
2017-10-13T10:41:20.686Z,42.56
2017-10-13T10:42:30.045Z,42.46
2017-10-13T10:43:38.745Z,42.56
2017-10-13T10:44:48.101Z,42.56
2017-10-13T10:45:56.799Z,42.46
2017-10-13T10:47:05.824Z,42.36
2017-10-13T10:48:15.191Z,42.18
2017-10-13T10:49:24.562Z,42.27
2017-10-13T10:50:33.593Z,42.08
2017-10-13T10:51:43.290Z,42.27
2017-10-13T10:52:52.315Z,42.36
2017-10-13T10:54:02.010Z,42.36
2017-10-13T10:55:11.037Z,42.46
2017-10-13T10:56:20.393Z,42.18
2017-10-13T10:57:29.424Z,42.27
2017-10-13T10:58:38.451Z,42.56
2017-10-13T10:59:47.143Z,42.66
2017-10-13T11:00:56.505Z,42.56
2017-10-13T11:02:05.205Z,42.56
2017-10-13T11:03:14.561Z,42.27
2017-10-13T11:04:23.922Z,42.56
2017-10-13T11:05:32.949Z,42.56
2017-10-13T11:06:42.309Z,42.46
2017-10-13T11:07:51.339Z,42.46
2017-10-13T11:09:00.371Z,42.56
2017-10-13T11:10:09.069Z,42.46
2017-10-13T11:11:18.101Z,42.27
2017-10-13T11:12:27.130Z,42.66
2017-10-13T11:13:36.159Z,42.46
2017-10-13T11:14:45.528Z,42.27
2017-10-13T11:15:54.888Z,42.36
2017-10-13T11:17:03.917Z,42.46
2017-10-13T11:18:12.616Z,42.39
2017-10-13T11:19:22.001Z,42.46
2017-10-13T11:20:31.379Z,42.36
2017-10-13T11:21:40.080Z,42.48
2017-10-13T11:22:49.786Z,42.56
2017-10-13T11:23:58.484Z,42.46
2017-10-13T11:25:07.849Z,42.58
2017-10-13T11:26:17.211Z,42.48
2017-10-13T11:27:26.902Z,42.29
2017-10-13T11:28:35.936Z,42.08
2017-10-13T11:29:44.963Z,42.19
2017-10-13T11:30:53.996Z,42.19
2017-10-13T11:32:03.355Z,42.1
2017-10-13T11:33:12.057Z,42.1
2017-10-13T11:34:20.761Z,42
2017-10-13T11:35:30.131Z,42.1
2017-10-13T11:36:39.509Z,42.19
2017-10-13T11:37:48.868Z,42.39
2017-10-13T11:38:57.569Z,42
2017-10-13T11:40:06.604Z,42.19
2017-10-13T11:41:15.973Z,42.39
2017-10-13T11:42:24.689Z,42.08
2017-10-13T11:43:33.367Z,42.08
2017-10-13T11:44:42.396Z,42.19
2017-10-13T11:45:51.762Z,42.1
2017-10-13T11:47:01.127Z,42.19
2017-10-13T11:48:09.824Z,42
2017-10-13T11:49:19.187Z,42
2017-10-13T11:50:28.215Z,42
2017-10-13T11:51:37.244Z,41.91
2017-10-13T11:52:45.941Z,42
2017-10-13T11:53:54.632Z,41.91
2017-10-13T11:55:04.328Z,42
2017-10-13T11:56:13.359Z,42.1
2017-10-13T11:57:22.725Z,41.91
2017-10-13T11:58:31.758Z,41.81
2017-10-13T11:59:40.783Z,41.91
2017-10-13T12:00:49.816Z,41.81
2017-10-13T12:01:59.177Z,41.81
2017-10-13T12:03:08.542Z,42.1
2017-10-13T12:04:17.570Z,42
2017-10-13T12:05:26.936Z,41.91
2017-10-13T12:06:35.964Z,41.71
2017-10-13T12:07:45.331Z,41.81
2017-10-13T12:08:54.687Z,41.81
2017-10-13T12:10:03.717Z,41.61
2017-10-13T12:11:12.751Z,41.91
2017-10-13T12:12:22.460Z,41.91
2017-10-13T12:13:32.161Z,41.81
2017-10-13T12:14:41.195Z,42
2017-10-13T12:15:50.888Z,41.52
2017-10-13T12:16:59.588Z,41.61
2017-10-13T12:18:08.287Z,42.1
2017-10-13T12:19:16.985Z,41.54
2017-10-13T12:20:26.346Z,41.42
2017-10-13T12:21:35.379Z,41.61
2017-10-13T12:22:44.413Z,41.61
2017-10-13T12:23:53.437Z,41.15
2017-10-13T12:25:03.149Z,41.15
2017-10-13T12:26:12.185Z,41.05
2017-10-13T12:27:21.213Z,42.21
2017-10-13T12:28:30.906Z,41.63
2017-10-13T12:29:39.933Z,41.25
2017-10-13T12:30:48.630Z,41.25
2017-10-13T12:31:57.328Z,41.73
2017-10-13T12:33:06.363Z,41.35
2017-10-13T12:34:15.397Z,41.44
2017-10-13T12:35:24.431Z,41.63
2017-10-13T12:36:33.130Z,41.63
2017-10-13T12:37:42.164Z,41.54
2017-10-13T12:38:51.530Z,41.15
2017-10-13T12:40:00.563Z,41.15
2017-10-13T12:41:09.596Z,41.27
2017-10-13T12:42:18.289Z,41.36
2017-10-13T12:43:27.314Z,41.25
2017-10-13T12:44:36.214Z,40.86
2017-10-13T12:45:44.912Z,41.27
2017-10-13T12:46:53.954Z,40.69
2017-10-13T12:48:03.330Z,40.59
2017-10-13T12:49:12.694Z,40.98
2017-10-13T12:50:21.728Z,40.5
2017-10-13T12:51:30.760Z,40.5
2017-10-13T12:52:40.458Z,40.78
2017-10-13T12:53:49.158Z,41.17
2017-10-13T12:54:58.527Z,40.88
2017-10-13T12:56:07.226Z,40.88
2017-10-13T12:57:16.594Z,41.08
2017-10-13T12:58:25.962Z,40.78
2017-10-13T12:59:34.661Z,41.36
2017-10-13T13:00:43.365Z,41.27
2017-10-13T13:01:52.066Z,41.27
2017-10-13T13:03:01.807Z,40.98
2017-10-13T13:04:10.817Z,41.08
2017-10-13T13:05:20.181Z,40.96
2017-10-13T13:06:29.877Z,40.69
2017-10-13T13:07:38.905Z,40.88
2017-10-13T13:08:48.270Z,40.88
2017-10-13T13:09:57.301Z,41.17
2017-10-13T13:11:06.329Z,41.17
2017-10-13T13:12:15.030Z,40.78
2017-10-13T13:13:24.062Z,40.98
2017-10-13T13:14:32.760Z,41.36
2017-10-13T13:15:41.793Z,41.27
2017-10-13T13:16:51.164Z,40.78
2017-10-13T13:18:00.197Z,41.66
2017-10-13T13:19:09.234Z,41.25
2017-10-13T13:20:18.264Z,41.15
2017-10-13T13:21:26.960Z,41.54
2017-10-13T13:22:35.996Z,41.46
2017-10-13T13:23:44.692Z,41.35
2017-10-13T13:24:53.388Z,41.25
2017-10-13T13:26:02.087Z,41.35
2017-10-13T13:27:11.453Z,41.83
2017-10-13T13:28:20.152Z,41.54
2017-10-13T13:29:29.180Z,41.25
2017-10-13T13:30:37.881Z,41.25
2017-10-13T13:31:46.912Z,41.35
2017-10-13T13:32:56.274Z,41.54
2017-10-13T13:34:05.644Z,41.73
2017-10-13T13:35:15.009Z,42.12
2017-10-13T13:36:24.700Z,42.02
2017-10-13T13:37:33.399Z,42.02
2017-10-13T13:38:42.761Z,41.83
2017-10-13T13:39:52.124Z,41.93
2017-10-13T13:41:01.155Z,41.83
2017-10-13T13:42:10.521Z,42.12
2017-10-13T13:43:19.911Z,41.63
2017-10-13T13:44:29.612Z,41.54
2017-10-13T13:45:38.307Z,41.63
2017-10-13T13:46:47.004Z,41.73
2017-10-13T13:47:55.701Z,42.12
2017-10-13T13:49:05.398Z,42.02
2017-10-13T13:50:14.759Z,41.63
2017-10-13T13:51:23.789Z,41.63
2017-10-13T13:52:32.498Z,41.63
2017-10-13T13:53:41.529Z,41.63
2017-10-13T13:54:50.563Z,41.44
2017-10-13T13:55:59.924Z,42.31
2017-10-13T13:57:09.959Z,41.05
2017-10-13T13:58:19.330Z,41.15
2017-10-13T13:59:28.714Z,42.12
2017-10-13T14:00:37.744Z,41.25
2017-10-13T14:01:46.440Z,41.15
2017-10-13T14:02:55.137Z,41.25
2017-10-13T14:04:04.500Z,41.54
2017-10-13T14:05:13.195Z,41.54
2017-10-13T14:06:21.906Z,41.63
2017-10-13T14:07:30.608Z,41.63
2017-10-13T14:08:39.967Z,41.35
2017-10-13T14:09:48.997Z,41.83
2017-10-13T14:10:57.695Z,41.05
2017-10-13T14:12:06.394Z,41.35
2017-10-13T14:13:15.757Z,41.54
2017-10-13T14:14:24.785Z,41.54
2017-10-13T14:15:33.815Z,41.93
2017-10-13T14:16:42.514Z,41.63
2017-10-13T14:17:51.684Z,41.93
2017-10-13T14:19:01.332Z,41.15
2017-10-13T14:20:10.033Z,41.25
2017-10-13T14:21:19.392Z,41.63
2017-10-13T14:22:28.422Z,41.63
2017-10-13T14:23:37.452Z,42.12
2017-10-13T14:24:46.816Z,41.54
2017-10-13T14:25:55.841Z,41.44
2017-10-13T14:27:04.887Z,42.02
2017-10-13T14:28:13.943Z,41.63
2017-10-13T14:29:23.313Z,41.54
2017-10-13T14:30:32.353Z,42.02
2017-10-13T14:31:41.719Z,41.54
2017-10-13T14:32:50.760Z,41.54
2017-10-13T14:34:00.457Z,41.63
2017-10-13T14:35:09.155Z,41.73
2017-10-13T14:36:18.517Z,41.63
2017-10-13T14:37:27.217Z,42.02
2017-10-13T14:38:36.247Z,42.02
2017-10-13T14:39:45.948Z,42.02
2017-10-13T14:40:55.312Z,41.44
2017-10-13T14:42:04.676Z,42.02
2017-10-13T14:43:13.373Z,41.63
2017-10-13T14:44:22.733Z,42.02
2017-10-13T14:45:32.760Z,41.44
2017-10-13T14:46:42.123Z,41.93
2017-10-13T14:47:51.495Z,41.54
2017-10-13T14:49:00.859Z,41.83
2017-10-13T14:50:09.895Z,41.73
2017-10-13T14:51:19.258Z,42.21
2017-10-13T14:52:27.953Z,41.63